Terminal Aerodrome Forecast
Issued by NWS

Home | Current Version | Previous Version | Text Only | Print | Product List | Glossary On
Versions: 1 2 3 4 5 6 7 8 9 10 11 12 13 14 15 16 17
905
FTUS43 KDTX 092025 AAA
TAFDET
TAF AMD
KDET 092025Z 0920/1018 29013G20KT 2SM -SN BR BKN015 OVC025
     FM092200 29013G20KT 6SM -SN BR BKN015 OVC025
     FM100100 29013KT P6SM BKN030
     FM101000 30013KT 6SM -SHSN OVC025
     FM101500 30013G20KT 4SM -SHSN OVC025=

USA.gov is the U.S. government's official web portal to all federal, state and local government web resources and services.